Decoded Metar for GCLA (LA PALMA in SPAIN) (IATA:SPC) | Meteo·Mobile Aviation Weather
aviador You're here:

GCLA Decoded Metar

LA PALMA in SPAIN
Report Time2018-11-16 03:30:00
UTC Time2018-11-16 03:55:05
Flight Rules vfr VFR
Wind290° at 10 kt
W.Decomp.*RWY 01: 2.9 kt HW 9.6 kt LCW
W.Rank290° ranks 15
Current wind is above 290° avg. (6.3)
Visibility9999 m
Phenomena:N/A
Clouds:N/A
Expected CloudBase > 3,200 ft AGL from Temp-Dew spread
CeilingNone
Temp17°C (ISA +2)
Dew Point09°C (59% RH)
AAT13.2°C
QNH1015 hPa
Density Alt449 ft
Elevation102 ft
Report Wrong Elevation
Raw Report
GCLA 160330Z AUTO 29010KT 9999 NCD 17/09 Q1015=

Extra information for GCLA:More info

Metar Taf Metar & Taf Last 4 Metars F.Rules Stats Wind Profile Meteogram Temp Stats Airport Information Weather charts Add Link Nearby VenuesMetar ALERT Operation Metar Decoded Social comments